Time;durP1;ratioP1;P1;durP2;ratioP2;P2;SDS_P1;SDS_P2;PMS_P1;PMS_P2;Temp;Humidity;BMP_temperature;BMP_pressure;BME280_temperature;BME280_humidity;BME280_pressure;Samples;Min_cycle;Max_cycle;Signal;HPM_P1;HPM_P2
2022/02/13 00:01:48;;;;;;;5.38;2.10;;;;;;;1.32;100.00;101816.25;10221093;28;20065;-67
2022/02/13 00:06:45;;;;;;;9.48;2.78;;;;;;;1.35;100.00;101799.66;10222192;28;20103;-68
2022/02/13 00:11:41;;;;;;;8.40;2.10;;;;;;;1.34;100.00;101792.59;10232403;28;20148;-68
2022/02/13 00:16:39;;;;;;;8.35;2.45;;;;;;;1.33;100.00;101790.97;10219620;28;20071;-68
2022/02/13 00:21:35;;;;;;;6.90;2.50;;;;;;;1.31;100.00;101779.59;10224377;28;20076;-69
2022/02/13 00:26:33;;;;;;;9.52;2.85;;;;;;;1.25;100.00;101775.13;10212539;28;20136;-68
2022/02/13 00:31:30;;;;;;;7.20;2.63;;;;;;;1.32;100.00;101783.09;10217187;28;20129;-66
2022/02/13 00:36:26;;;;;;;9.00;2.10;;;;;;;1.25;100.00;101786.75;10223352;28;20099;-68
2022/02/13 00:41:23;;;;;;;9.55;2.53;;;;;;;1.22;100.00;101784.47;10220715;28;20128;-66
2022/02/13 00:46:20;;;;;;;9.73;2.28;;;;;;;1.28;100.00;101772.00;10228118;28;20045;-68
2022/02/13 00:51:16;;;;;;;5.82;2.13;;;;;;;1.23;100.00;101775.38;10219044;28;20112;-67
2022/02/13 00:56:14;;;;;;;7.03;2.20;;;;;;;1.30;100.00;101761.81;10219017;28;20045;-67
2022/02/13 01:01:10;;;;;;;8.48;3.15;;;;;;;1.18;100.00;101750.16;10232868;28;20045;-68
2022/02/13 01:06:07;;;;;;;8.50;2.83;;;;;;;1.17;100.00;101743.13;10208506;28;20467;-66
2022/02/13 01:11:06;;;;;;;6.60;2.72;;;;;;;1.22;100.00;101743.25;10220575;28;20053;-68
2022/02/13 01:16:03;;;;;;;8.52;2.85;;;;;;;1.30;100.00;101748.34;10212360;28;20562;-67
2022/02/13 01:20:59;;;;;;;10.40;3.90;;;;;;;1.23;100.00;101734.13;10218935;28;20549;-67
2022/02/13 01:25:57;;;;;;;10.30;3.88;;;;;;;1.26;100.00;101725.59;10222866;28;20531;-68
2022/02/13 01:30:57;;;;;;;7.00;2.90;;;;;;;1.23;100.00;101731.41;10205903;28;20120;-69
2022/02/13 01:35:54;;;;;;;9.75;2.90;;;;;;;1.18;100.00;101723.22;10206474;28;20570;-65
2022/02/13 01:40:52;;;;;;;9.75;2.92;;;;;;;1.22;100.00;101708.25;10214689;28;20087;-65
2022/02/13 01:45:49;;;;;;;8.65;3.17;;;;;;;1.19;100.00;101696.06;10213766;28;20395;-70
2022/02/13 01:50:49;;;;;;;10.70;2.95;;;;;;;1.16;100.00;101693.81;10220744;28;20053;-70
2022/02/13 01:56:06;;;;;;;8.60;3.00;;;;;;;1.11;100.00;101695.56;10209590;28;20056;-65
2022/02/13 02:01:04;;;;;;;8.27;2.80;;;;;;;1.09;100.00;101711.13;10214102;28;20046;-67
2022/02/13 02:06:01;;;;;;;8.75;2.72;;;;;;;1.09;100.00;101689.56;10210891;28;20053;-65
2022/02/13 02:10:57;;;;;;;8.85;3.17;;;;;;;1.08;100.00;101679.88;10224642;28;20569;-66
2022/02/13 02:15:54;;;;;;;7.53;2.88;;;;;;;1.09;100.00;101676.09;10218796;28;20566;-69
2022/02/13 02:20:50;;;;;;;10.90;2.95;;;;;;;1.03;100.00;101681.38;10211477;28;20041;-66
2022/02/13 02:25:46;;;;;;;8.82;3.00;;;;;;;1.06;100.00;101663.94;10211817;28;20507;-69
2022/02/13 02:30:43;;;;;;;9.93;3.13;;;;;;;1.09;100.00;101651.88;10214801;28;20045;-68
2022/02/13 02:35:40;;;;;;;8.45;3.58;;;;;;;0.99;100.00;101650.56;10217372;28;20137;-69
2022/02/13 02:40:36;;;;;;;9.95;3.05;;;;;;;0.97;100.00;101631.13;10214256;28;20519;-68
2022/02/13 02:45:33;;;;;;;10.20;2.80;;;;;;;0.92;100.00;101622.91;10201972;28;20134;-67
2022/02/13 02:50:29;;;;;;;5.90;2.72;;;;;;;0.95;100.00;101617.09;10211991;28;20397;-68
2022/02/13 02:55:25;;;;;;;10.73;3.40;;;;;;;0.97;100.00;101614.13;10206329;28;20902;-69
2022/02/13 03:00:22;;;;;;;8.10;3.38;;;;;;;0.93;100.00;101603.03;10214428;28;20042;-68
2022/02/13 03:05:19;;;;;;;9.05;3.50;;;;;;;0.98;100.00;101602.34;10205269;28;20443;-68
2022/02/13 03:10:15;;;;;;;10.05;2.97;;;;;;;0.98;100.00;101576.22;10216470;28;20111;-66
2022/02/13 03:15:11;;;;;;;8.15;3.10;;;;;;;1.01;100.00;101567.66;10212506;28;20095;-68
2022/02/13 03:20:09;;;;;;;7.18;3.25;;;;;;;0.97;100.00;101565.66;10213231;28;20045;-68
2022/02/13 03:25:06;;;;;;;11.48;3.45;;;;;;;0.98;100.00;101546.59;10209924;28;20104;-66
2022/02/13 03:30:04;;;;;;;11.73;3.97;;;;;;;0.99;100.00;101525.88;10210827;28;20133;-66
2022/02/13 03:35:01;;;;;;;9.18;3.28;;;;;;;0.94;100.00;101529.25;10217462;28;20104;-66
2022/02/13 03:39:57;;;;;;;8.55;3.60;;;;;;;0.91;100.00;101524.34;10218576;28;20041;-67
2022/02/13 03:44:54;;;;;;;9.13;3.47;;;;;;;0.84;100.00;101519.06;10216426;28;20132;-69
2022/02/13 03:49:51;;;;;;;7.78;3.28;;;;;;;0.88;100.00;101532.06;10203712;28;20038;-68
2022/02/13 03:54:47;;;;;;;11.18;3.55;;;;;;;0.77;100.00;101517.56;10207064;28;20065;-67
2022/02/13 03:59:44;;;;;;;11.18;3.63;;;;;;;0.83;100.00;101516.59;10215039;28;20562;-69
2022/02/13 04:04:41;;;;;;;10.85;3.88;;;;;;;0.80;100.00;101506.31;10205598;28;20046;-67
2022/02/13 04:09:38;;;;;;;10.43;3.83;;;;;;;0.75;100.00;101519.66;10221936;28;20076;-69
2022/02/13 04:14:35;;;;;;;9.35;3.70;;;;;;;0.78;100.00;101521.88;10203188;28;20096;-68
2022/02/13 04:19:31;;;;;;;10.73;4.13;;;;;;;0.77;100.00;101528.31;10209162;28;20076;-68
2022/02/13 04:24:28;;;;;;;12.48;4.53;;;;;;;0.79;100.00;101520.81;10212259;28;20570;-67
2022/02/13 04:29:24;;;;;;;11.20;3.92;;;;;;;0.77;100.00;101504.09;10204753;28;20202;-66
2022/02/13 04:34:21;;;;;;;10.30;4.22;;;;;;;0.74;100.00;101501.84;10206307;28;20089;-67
2022/02/13 04:39:17;;;;;;;8.18;4.00;;;;;;;0.76;100.00;101500.56;10206194;28;20455;-67
2022/02/13 04:44:14;;;;;;;10.80;3.95;;;;;;;0.81;100.00;101503.41;10212042;28;20042;-67
2022/02/13 04:49:10;;;;;;;6.88;3.72;;;;;;;0.80;100.00;101495.53;10211556;28;20531;-67
2022/02/13 04:54:07;;;;;;;11.38;4.90;;;;;;;0.76;100.00;101478.22;10205377;28;20046;-67
2022/02/13 04:59:04;;;;;;;11.93;4.07;;;;;;;0.80;100.00;101474.00;10209596;28;20045;-67
2022/02/13 05:04:00;;;;;;;9.60;4.28;;;;;;;0.79;100.00;101461.59;10202085;28;20049;-68
2022/02/13 05:08:56;;;;;;;12.60;4.38;;;;;;;0.76;100.00;101462.06;10199555;28;20057;-67
2022/02/13 05:13:53;;;;;;;11.07;4.60;;;;;;;0.72;100.00;101460.88;10197923;28;20153;-68
2022/02/13 05:18:50;;;;;;;12.15;4.03;;;;;;;0.73;100.00;101457.97;10196822;28;20133;-66
2022/02/13 05:23:46;;;;;;;10.18;3.53;;;;;;;0.70;100.00;101447.69;10203928;28;20479;-67
2022/02/13 05:28:43;;;;;;;10.88;3.75;;;;;;;0.71;100.00;101453.88;10201065;28;20066;-66
2022/02/13 05:33:39;;;;;;;10.35;3.90;;;;;;;0.70;100.00;101444.19;10199477;28;20084;-69
2022/02/13 05:38:36;;;;;;;14.57;4.22;;;;;;;0.72;100.00;101439.34;10218149;28;20103;-69
2022/02/13 05:43:32;;;;;;;13.68;3.70;;;;;;;0.67;100.00;101441.94;10211088;28;20136;-67
2022/02/13 05:48:30;;;;;;;11.52;3.47;;;;;;;0.66;100.00;101451.06;10213368;28;20132;-69
2022/02/13 05:53:26;;;;;;;9.20;4.05;;;;;;;0.69;100.00;101442.50;10217844;28;20080;-69
2022/02/13 05:58:23;;;;;;;6.65;3.53;;;;;;;0.72;100.00;101439.34;10213620;28;20630;-69
2022/02/13 06:03:19;;;;;;;11.48;4.00;;;;;;;0.65;100.00;101422.50;10214628;28;20069;-69
2022/02/13 06:08:16;;;;;;;7.95;3.90;;;;;;;0.76;100.00;101424.38;10209981;28;20033;-69
2022/02/13 06:13:12;;;;;;;6.90;3.33;;;;;;;0.76;100.00;101429.75;10221591;28;20079;-69
2022/02/13 06:18:08;;;;;;;8.32;3.92;;;;;;;0.80;100.00;101431.75;10219641;28;20506;-69
2022/02/13 06:23:05;;;;;;;24.02;5.88;;;;;;;0.80;100.00;101430.94;10206887;28;20053;-69
2022/02/13 06:28:02;;;;;;;10.43;3.83;;;;;;;0.72;100.00;101415.13;10212948;28;20085;-69
2022/02/13 06:33:03;;;;;;;14.02;4.20;;;;;;;0.86;100.00;101423.78;10217641;28;20137;-70
2022/02/13 06:38:02;;;;;;;11.77;4.28;;;;;;;0.73;100.00;101422.16;10213324;28;20041;-70
2022/02/13 06:42:59;;;;;;;12.95;4.28;;;;;;;0.77;100.00;101417.94;10217663;28;20042;-70
2022/02/13 06:47:55;;;;;;;9.02;3.60;;;;;;;0.76;100.00;101419.00;10207833;28;20065;-70
2022/02/13 06:52:52;;;;;;;13.00;4.25;;;;;;;0.73;100.00;101414.91;10208523;28;20103;-66
2022/02/13 06:57:51;;;;;;;7.65;3.95;;;;;;;0.77;100.00;101420.66;10217979;28;20049;-64
2022/02/13 07:02:48;;;;;;;10.15;3.80;;;;;;;0.69;100.00;101423.69;10213743;28;20137;-65
2022/02/13 07:07:44;;;;;;;9.18;3.50;;;;;;;0.79;100.00;101418.50;10209283;28;20073;-65
2022/02/13 07:12:43;;;;;;;8.90;4.03;;;;;;;0.79;100.00;101413.13;10195865;28;20046;-69
2022/02/13 07:17:39;;;;;;;10.60;3.72;;;;;;;0.77;100.00;101420.66;10210092;28;20076;-68
2022/02/13 07:22:36;;;;;;;11.52;4.00;;;;;;;0.76;100.00;101408.22;10199838;28;20077;-68
2022/02/13 07:27:36;;;;;;;7.35;3.72;;;;;;;0.78;100.00;101409.63;10205702;28;20154;-70
2022/02/13 07:32:33;;;;;;;9.68;3.38;;;;;;;0.75;100.00;101391.25;10199303;28;20045;-70
2022/02/13 07:37:30;;;;;;;10.50;3.60;;;;;;;0.78;100.00;101384.59;10207129;28;20073;-71
2022/02/13 07:42:26;;;;;;;11.82;3.67;;;;;;;0.78;100.00;101385.38;10206847;28;20730;-66
2022/02/13 07:47:23;;;;;;;10.90;3.80;;;;;;;0.78;100.00;101384.59;10209665;28;20519;-65
2022/02/13 07:52:19;;;;;;;8.30;3.78;;;;;;;0.82;100.00;101374.97;10209698;28;20069;-66
2022/02/13 07:57:15;;;;;;;8.68;3.83;;;;;;;0.87;100.00;101377.78;10206780;28;20066;-66
2022/02/13 08:02:12;;;;;;;9.73;3.83;;;;;;;0.83;100.00;101373.91;10206492;28;20173;-65
2022/02/13 08:07:09;;;;;;;8.13;3.42;;;;;;;0.90;100.00;101390.75;10207435;28;20137;-65
2022/02/13 08:12:06;;;;;;;9.93;3.60;;;;;;;0.96;100.00;101375.53;10205636;28;20077;-72
2022/02/13 08:17:03;;;;;;;10.95;3.92;;;;;;;1.00;100.00;101374.84;10220873;28;20037;-73
2022/02/13 08:21:59;;;;;;;9.90;3.17;;;;;;;1.00;100.00;101372.16;10220801;28;20070;-73
2022/02/13 08:26:56;;;;;;;8.90;3.63;;;;;;;1.12;100.00;101371.28;10223347;28;20132;-73
2022/02/13 08:31:52;;;;;;;6.97;2.88;;;;;;;1.25;100.00;101368.31;10216984;28;20557;-72
2022/02/13 08:36:49;;;;;;;7.75;3.08;;;;;;;1.39;100.00;101364.28;10209056;28;20091;-72
2022/02/13 08:41:45;;;;;;;7.18;3.65;;;;;;;1.57;100.00;101343.56;10208812;28;20080;-72
2022/02/13 08:46:42;;;;;;;9.82;3.22;;;;;;;1.66;100.00;101342.94;10207499;28;20080;-72
2022/02/13 08:51:38;;;;;;;8.50;3.40;;;;;;;1.83;100.00;101331.34;10218208;28;21349;-72
2022/02/13 08:56:35;;;;;;;8.57;3.92;;;;;;;1.93;100.00;101304.56;10211194;28;20512;-72
2022/02/13 09:01:31;;;;;;;8.70;3.95;;;;;;;2.08;100.00;101298.59;10210425;28;20069;-72
2022/02/13 09:06:28;;;;;;;9.07;3.58;;;;;;;2.27;100.00;101286.44;10212262;28;20046;-71
2022/02/13 09:11:25;;;;;;;7.45;3.30;;;;;;;2.46;100.00;101286.16;10202938;28;20140;-72
2022/02/13 09:16:22;;;;;;;7.60;3.85;;;;;;;2.64;100.00;101277.75;10205233;28;20161;-71
2022/02/13 09:21:18;;;;;;;7.82;3.58;;;;;;;2.78;100.00;101282.78;10215423;28;20049;-72
2022/02/13 09:26:16;;;;;;;7.07;3.45;;;;;;;2.92;100.00;101273.22;10193308;28;20456;-69
2022/02/13 09:31:13;;;;;;;7.45;3.22;;;;;;;3.21;100.00;101271.13;10189881;28;20125;-69
2022/02/13 09:36:09;;;;;;;7.25;2.95;;;;;;;3.34;100.00;101250.97;10199604;28;20133;-69
2022/02/13 09:41:06;;;;;;;7.75;3.30;;;;;;;3.53;100.00;101263.03;10191019;28;20456;-70
2022/02/13 09:46:05;;;;;;;6.45;2.85;;;;;;;3.64;100.00;101252.31;10193829;28;20139;-71
2022/02/13 09:51:02;;;;;;;9.90;2.90;;;;;;;3.80;100.00;101264.88;10209871;28;20046;-72
2022/02/13 09:55:59;;;;;;;7.60;2.78;;;;;;;3.91;100.00;101252.25;10211612;28;20073;-73
2022/02/13 10:01:04;;;;;;;6.25;2.90;;;;;;;4.02;100.00;101253.13;10212117;28;20069;-71
2022/02/13 10:06:23;;;;;;;6.60;2.65;;;;;;;4.13;100.00;101252.09;10207344;28;20100;-72
2022/02/13 10:11:26;;;;;;;9.73;2.60;;;;;;;4.29;95.31;101248.41;10206925;28;20053;-72
2022/02/13 10:16:31;;;;;;;8.38;3.30;;;;;;;4.54;97.08;101249.63;10207701;28;20038;-71
2022/02/13 10:21:41;;;;;;;10.85;2.80;;;;;;;4.74;95.17;101249.69;10204578;28;20084;-71
2022/02/13 10:26:37;;;;;;;9.50;3.10;;;;;;;5.15;92.80;101240.84;10208608;28;20141;-71
2022/02/13 10:31:34;;;;;;;6.07;2.72;;;;;;;5.42;86.14;101243.34;10197636;28;20659;-70
2022/02/13 10:36:38;;;;;;;7.40;2.90;;;;;;;5.45;83.66;101253.63;10207075;28;20080;-71
2022/02/13 10:41:35;;;;;;;9.70;3.00;;;;;;;5.56;84.16;101249.03;10192147;28;20048;-70
2022/02/13 10:46:37;;;;;;;7.75;3.05;;;;;;;5.46;85.39;101241.72;10197004;28;20097;-70
2022/02/13 10:51:39;;;;;;;6.50;2.90;;;;;;;5.40;84.76;101240.06;10212363;28;20042;-72
2022/02/13 10:56:35;;;;;;;6.03;2.70;;;;;;;5.33;85.44;101239.53;10206428;28;20045;-71
2022/02/13 11:01:32;;;;;;;10.02;3.03;;;;;;;5.22;87.88;101223.25;10207536;28;20084;-70
2022/02/13 11:06:35;;;;;;;6.78;3.08;;;;;;;5.36;86.56;101223.56;10196075;28;20465;-71
2022/02/13 11:11:32;;;;;;;6.77;2.83;;;;;;;5.44;85.06;101214.84;10198869;28;20050;-65
2022/02/13 11:16:31;;;;;;;6.82;3.28;;;;;;;5.64;86.95;101191.50;10211388;28;20460;-68
2022/02/13 11:21:30;;;;;;;6.80;2.75;;;;;;;5.77;83.39;101192.88;10181223;28;20104;-68
2022/02/13 11:26:43;;;;;;;7.22;3.15;;;;;;;6.13;87.76;101176.50;10184013;28;20104;-68
2022/02/13 11:31:50;;;;;;;7.75;2.95;;;;;;;5.96;83.45;101172.22;10175758;28;20038;-68
2022/02/13 11:36:49;;;;;;;6.50;2.97;;;;;;;6.17;81.72;101169.44;10198672;28;20053;-68
2022/02/13 11:41:46;;;;;;;7.63;3.40;;;;;;;6.26;83.96;101160.44;10176638;28;20105;-68
2022/02/13 11:46:42;;;;;;;5.10;2.83;;;;;;;6.26;82.52;101144.16;10198130;28;20043;-68
2022/02/13 11:51:53;;;;;;;6.65;2.63;;;;;;;6.40;83.00;101143.56;10178826;28;20164;-68
2022/02/13 11:57:10;;;;;;;7.93;3.63;;;;;;;6.73;81.05;101131.16;10198461;28;20440;-70
2022/02/13 12:02:06;;;;;;;9.32;3.80;;;;;;;6.94;80.00;101138.06;10181439;28;20042;-70
2022/02/13 12:07:03;;;;;;;8.73;3.05;;;;;;;6.93;75.43;101120.13;10208178;28;20045;-70
2022/02/13 12:12:00;;;;;;;7.13;2.90;;;;;;;7.03;75.94;101108.38;10175191;28;20148;-70
2022/02/13 12:16:59;;;;;;;6.75;3.53;;;;;;;7.43;78.63;101100.16;10175383;28;20041;-71
2022/02/13 12:22:14;;;;;;;8.05;3.63;;;;;;;7.75;78.33;101092.19;10156829;28;20039;-70
2022/02/13 12:27:11;;;;;;;5.82;2.80;;;;;;;7.94;71.40;101083.25;10191288;28;20050;-70
2022/02/13 12:32:10;;;;;;;6.45;3.22;;;;;;;8.22;67.96;101074.16;10189769;28;20156;-71
2022/02/13 12:37:06;;;;;;;9.50;4.07;;;;;;;8.28;67.12;101065.91;10186897;28;20099;-70
2022/02/13 12:42:03;;;;;;;9.77;3.90;;;;;;;8.41;66.05;101054.31;10183974;28;20460;-70
2022/02/13 12:47:00;;;;;;;7.72;3.75;;;;;;;8.88;64.93;101047.03;10178061;28;20076;-70
2022/02/13 12:51:57;;;;;;;5.82;3.22;;;;;;;9.44;62.39;101043.31;10180736;28;20124;-71
2022/02/13 12:56:54;;;;;;;7.25;3.40;;;;;;;8.70;59.91;101034.25;10188339;28;20046;-70
2022/02/13 13:01:52;;;;;;;6.60;2.92;;;;;;;9.01;59.27;101019.00;10190223;28;20046;-71
2022/02/13 13:06:49;;;;;;;8.02;3.10;;;;;;;8.71;59.83;101019.53;10199622;28;20076;-70
2022/02/13 13:11:49;;;;;;;7.43;3.13;;;;;;;9.12;56.46;101013.34;10192001;28;20049;-70
2022/02/13 13:16:45;;;;;;;8.50;3.20;;;;;;;9.56;56.37;100995.59;10205869;28;20419;-68
2022/02/13 13:21:45;;;;;;;6.25;2.88;;;;;;;8.87;56.01;100996.34;10182248;28;20049;-67
2022/02/13 13:26:49;;;;;;;6.25;2.92;;;;;;;9.36;55.13;100992.16;10166957;28;20707;-67
2022/02/13 13:32:02;;;;;;;7.75;3.45;;;;;;;9.24;53.48;100983.69;10170755;28;20050;-69
2022/02/13 13:37:18;;;;;;;7.45;3.05;;;;;;;9.24;57.18;100976.28;10173590;28;20075;-68
2022/02/13 13:42:15;;;;;;;5.95;2.92;;;;;;;9.33;55.41;100976.41;10177244;28;20034;-65
2022/02/13 13:47:17;;;;;;;9.00;3.00;;;;;;;8.93;55.61;100962.41;10170073;28;20724;-66
2022/02/13 13:52:14;;;;;;;6.73;2.97;;;;;;;9.29;55.22;100956.28;10185752;28;20057;-65
2022/02/13 13:57:14;;;;;;;5.57;3.42;;;;;;;9.31;54.88;100945.09;10195599;28;20046;-65
2022/02/13 14:02:22;;;;;;;7.07;3.50;;;;;;;9.77;55.26;100936.72;10192093;28;20065;-66
2022/02/13 14:07:19;;;;;;;5.57;2.92;;;;;;;9.60;54.18;100944.75;10172544;28;20046;-68
2022/02/13 14:12:18;;;;;;;6.82;2.90;;;;;;;9.32;54.53;100925.66;10201087;28;20455;-67
2022/02/13 14:17:17;;;;;;;7.45;3.10;;;;;;;8.99;54.91;100922.22;10168197;28;20046;-67
2022/02/13 14:22:13;;;;;;;5.00;2.70;;;;;;;8.78;56.83;100921.81;10169951;28;20042;-67
2022/02/13 14:27:10;;;;;;;6.57;2.47;;;;;;;8.57;57.84;100908.53;10182622;28;20041;-67
2022/02/13 14:32:07;;;;;;;8.07;3.00;;;;;;;8.46;57.95;100893.47;10181599;28;20464;-67
2022/02/13 14:37:05;;;;;;;6.68;3.22;;;;;;;8.21;58.82;100892.78;10196053;28;20157;-67
2022/02/13 14:42:03;;;;;;;5.65;2.72;;;;;;;7.98;59.09;100888.22;10186049;28;20458;-67
2022/02/13 14:46:59;;;;;;;5.90;2.65;;;;;;;7.86;58.27;100890.59;10201166;28;20119;-68
2022/02/13 14:51:56;;;;;;;6.90;2.97;;;;;;;7.78;59.38;100868.38;10201464;28;20037;-68
2022/02/13 14:56:52;;;;;;;6.70;2.63;;;;;;;7.76;61.87;100870.59;10203061;28;20538;-69
2022/02/13 15:01:49;;;;;;;5.55;2.65;;;;;;;7.79;60.20;100861.81;10200368;28;20096;-69
2022/02/13 15:06:46;;;;;;;5.80;2.55;;;;;;;7.60;59.87;100871.91;10196567;28;20087;-69
2022/02/13 15:11:43;;;;;;;5.43;2.78;;;;;;;7.64;64.18;100851.19;10202563;28;20152;-69
2022/02/13 15:16:40;;;;;;;6.50;2.80;;;;;;;7.52;67.08;100853.50;10197975;28;20057;-69
2022/02/13 15:21:38;;;;;;;6.95;3.10;;;;;;;7.57;67.64;100845.28;10184880;28;20065;-70
2022/02/13 15:26:34;;;;;;;7.35;3.28;;;;;;;7.57;69.16;100839.84;10198342;28;20117;-69
2022/02/13 15:31:30;;;;;;;5.20;2.63;;;;;;;7.50;67.42;100842.13;10203624;28;20093;-69
2022/02/13 15:36:30;;;;;;;7.32;2.95;;;;;;;7.48;68.51;100836.19;10214006;28;20133;-69
2022/02/13 15:41:27;;;;;;;6.05;2.70;;;;;;;7.36;68.32;100829.25;10199211;28;20503;-67
2022/02/13 15:46:23;;;;;;;6.00;2.72;;;;;;;7.16;70.45;100824.09;10202397;28;20554;-68
2022/02/13 15:51:21;;;;;;;5.10;2.70;;;;;;;7.03;71.62;100813.91;10210662;28;20045;-65
2022/02/13 15:56:17;;;;;;;7.22;3.58;;;;;;;6.95;73.36;100802.59;10194937;28;20124;-68
2022/02/13 16:01:14;;;;;;;7.40;3.03;;;;;;;6.71;77.16;100796.38;10208974;28;20136;-66
2022/02/13 16:06:10;;;;;;;7.15;3.20;;;;;;;6.69;76.28;100783.09;10192302;28;20468;-66
2022/02/13 16:11:07;;;;;;;7.22;3.55;;;;;;;6.57;77.79;100779.13;10204662;28;20045;-66
2022/02/13 16:16:04;;;;;;;7.15;3.78;;;;;;;6.39;77.72;100773.38;10180564;28;20085;-66
2022/02/13 16:21:00;;;;;;;8.88;3.67;;;;;;;6.46;78.09;100762.97;10178903;28;20050;-66
2022/02/13 16:25:57;;;;;;;6.85;2.90;;;;;;;6.36;79.62;100740.53;10180806;28;20131;-66
2022/02/13 16:30:53;;;;;;;9.52;3.15;;;;;;;6.34;80.72;100735.41;10190961;28;20045;-68
2022/02/13 16:35:50;;;;;;;7.25;3.60;;;;;;;6.25;82.01;100729.81;10204192;28;20053;-67
2022/02/13 16:40:46;;;;;;;9.55;3.70;;;;;;;6.16;83.97;100717.94;10182513;28;20539;-68
2022/02/13 16:45:43;;;;;;;9.65;3.60;;;;;;;6.05;85.87;100714.53;10177054;28;20046;-68
2022/02/13 16:50:40;;;;;;;9.68;3.70;;;;;;;5.99;86.73;100710.25;10186396;28;20047;-68
2022/02/13 16:55:36;;;;;;;7.80;4.13;;;;;;;5.98;87.54;100703.19;10190707;28;20038;-68
2022/02/13 17:00:33;;;;;;;7.20;3.80;;;;;;;5.90;88.67;100709.25;10204650;28;20447;-68
2022/02/13 17:05:31;;;;;;;8.18;4.22;;;;;;;5.87;89.34;100696.22;10183900;28;20053;-67
2022/02/13 17:10:28;;;;;;;9.95;4.45;;;;;;;5.85;90.34;100693.00;10174014;28;20124;-67
2022/02/13 17:15:28;;;;;;;11.40;5.45;;;;;;;5.77;90.84;100688.19;10207814;28;20049;-68
2022/02/13 17:20:25;;;;;;;8.45;4.20;;;;;;;5.72;90.79;100690.97;10193384;28;20499;-69
2022/02/13 17:25:22;;;;;;;8.00;3.53;;;;;;;5.67;92.44;100683.69;10185748;28;20057;-69
2022/02/13 17:30:18;;;;;;;8.25;4.30;;;;;;;5.60;92.28;100675.06;10166608;28;20088;-67
2022/02/13 17:35:15;;;;;;;8.10;3.67;;;;;;;5.52;92.82;100676.47;10190856;28;20661;-67
2022/02/13 17:40:12;;;;;;;9.57;4.13;;;;;;;5.46;93.65;100683.06;10193552;28;20081;-68
2022/02/13 17:45:08;;;;;;;9.98;4.40;;;;;;;5.51;93.15;100672.16;10176329;28;20099;-67
2022/02/13 17:50:05;;;;;;;8.45;3.80;;;;;;;5.51;93.99;100669.44;10200093;28;20061;-67
2022/02/13 17:55:06;;;;;;;9.95;4.15;;;;;;;5.42;94.62;100657.59;10189407;28;20058;-67
2022/02/13 18:00:08;;;;;;;9.95;3.95;;;;;;;5.39;94.29;100641.91;10177196;28;20077;-68
2022/02/13 18:05:06;;;;;;;9.50;4.07;;;;;;;5.38;94.52;100645.69;10206875;28;20099;-67
2022/02/13 18:10:05;;;;;;;8.63;3.92;;;;;;;5.31;96.40;100628.94;10178058;28;20050;-68
2022/02/13 18:15:03;;;;;;;10.38;3.78;;;;;;;5.22;95.71;100632.28;10196294;28;20052;-68
2022/02/13 18:20:02;;;;;;;7.95;3.30;;;;;;;5.19;96.56;100619.28;10195861;28;20492;-69
2022/02/13 18:24:59;;;;;;;7.68;3.50;;;;;;;5.16;98.31;100616.34;10182980;28;20073;-67
2022/02/13 18:29:56;;;;;;;8.82;3.40;;;;;;;5.12;99.57;100605.25;10185758;28;20130;-68
2022/02/13 18:34:53;;;;;;;10.05;4.07;;;;;;;5.13;100.00;100601.47;10177776;28;20037;-68
2022/02/13 18:39:50;;;;;;;8.32;3.55;;;;;;;5.06;100.00;100595.56;10212801;28;20128;-68
2022/02/13 18:44:51;;;;;;;11.15;4.63;;;;;;;5.07;100.00;100589.03;10194924;28;20135;-68
2022/02/13 18:49:47;;;;;;;8.18;3.88;;;;;;;5.02;100.00;100587.19;10168877;28;20516;-68
2022/02/13 18:54:45;;;;;;;11.07;4.05;;;;;;;5.01;100.00;100565.78;10175912;28;20116;-68
2022/02/13 18:59:42;;;;;;;10.05;3.90;;;;;;;5.02;100.00;100559.28;10176860;28;20099;-68
2022/02/13 19:04:40;;;;;;;8.52;3.53;;;;;;;4.97;100.00;100554.72;10184988;28;20184;-68
2022/02/13 19:09:37;;;;;;;10.27;4.25;;;;;;;4.97;100.00;100548.50;10179048;28;20125;-68
2022/02/13 19:14:33;;;;;;;10.25;3.88;;;;;;;4.88;100.00;100544.78;10186460;28;20136;-67
2022/02/13 19:19:30;;;;;;;10.32;4.35;;;;;;;4.84;100.00;100539.91;10160367;28;20483;-68
2022/02/13 19:24:28;;;;;;;6.70;3.78;;;;;;;4.99;100.00;100530.84;10167043;28;20411;-67
2022/02/13 19:29:25;;;;;;;8.63;4.07;;;;;;;5.05;100.00;100523.47;10169734;28;20050;-67
2022/02/13 19:34:22;;;;;;;8.40;3.90;;;;;;;5.05;100.00;100523.47;10174209;28;20054;-68
2022/02/13 19:39:19;;;;;;;9.48;3.67;;;;;;;5.12;100.00;100523.94;10166884;28;20051;-67
2022/02/13 19:44:15;;;;;;;9.77;4.18;;;;;;;5.17;100.00;100515.75;10177204;28;20084;-68
2022/02/13 19:49:12;;;;;;;7.25;3.58;;;;;;;5.15;100.00;100515.25;10184525;28;20053;-68
2022/02/13 19:54:09;;;;;;;11.77;3.58;;;;;;;5.14;100.00;100505.50;10183814;28;20117;-68
2022/02/13 19:59:05;;;;;;;8.60;3.80;;;;;;;5.23;100.00;100509.19;10182973;28;20046;-68
2022/02/13 20:04:03;;;;;;;10.38;4.80;;;;;;;5.21;100.00;100500.53;10167728;28;20520;-68
2022/02/13 20:09:00;;;;;;;13.40;5.35;;;;;;;5.19;100.00;100502.72;10163581;28;20077;-68
2022/02/13 20:13:57;;;;;;;9.93;4.15;;;;;;;5.26;100.00;100486.13;10196842;28;20096;-67
2022/02/13 20:18:54;;;;;;;11.05;4.72;;;;;;;5.24;100.00;100493.72;10197141;28;20054;-67
2022/02/13 20:23:50;;;;;;;10.95;5.30;;;;;;;5.26;100.00;100481.50;10175408;28;20041;-68
2022/02/13 20:28:47;;;;;;;8.63;4.82;;;;;;;5.28;100.00;100473.09;10167117;28;20065;-68
2022/02/13 20:33:43;;;;;;;10.93;4.30;;;;;;;5.32;100.00;100462.50;10162668;28;20069;-67
2022/02/13 20:38:42;;;;;;;11.15;4.93;;;;;;;5.33;100.00;100451.34;10187897;28;20046;-68
2022/02/13 20:43:38;;;;;;;8.70;4.75;;;;;;;5.37;100.00;100459.72;10166588;28;20084;-67
2022/02/13 20:48:35;;;;;;;8.23;4.47;;;;;;;5.33;100.00;100461.38;10177759;28;20416;-68
2022/02/13 20:53:32;;;;;;;10.70;4.55;;;;;;;5.40;100.00;100448.28;10177740;28;20116;-67
2022/02/13 20:58:30;;;;;;;12.18;5.35;;;;;;;5.41;100.00;100449.91;10197778;28;20094;-68
2022/02/13 21:03:26;;;;;;;11.43;5.03;;;;;;;5.42;100.00;100440.66;10175624;28;20101;-68
2022/02/13 21:08:23;;;;;;;10.52;4.95;;;;;;;5.41;100.00;100428.22;10179635;28;20042;-67
2022/02/13 21:13:23;;;;;;;14.20;5.45;;;;;;;5.43;100.00;100426.00;10175677;28;20069;-66
2022/02/13 21:18:20;;;;;;;10.32;5.45;;;;;;;5.43;100.00;100420.59;10174051;28;20065;-67
2022/02/13 21:23:17;;;;;;;10.32;5.20;;;;;;;5.34;100.00;100416.91;10202926;28;20727;-69
2022/02/13 21:28:14;;;;;;;13.75;5.35;;;;;;;5.36;100.00;100409.28;10211490;28;20088;-68
2022/02/13 21:33:11;;;;;;;13.95;5.57;;;;;;;5.46;100.00;100409.97;10201615;28;20470;-68
2022/02/13 21:38:07;;;;;;;10.75;4.82;;;;;;;5.54;100.00;100394.94;10191566;28;20046;-68
2022/02/13 21:43:04;;;;;;;12.98;5.35;;;;;;;5.61;100.00;100389.97;10162958;28;20101;-68
2022/02/13 21:48:02;;;;;;;13.95;5.47;;;;;;;5.64;100.00;100381.25;10175740;28;20081;-67
2022/02/13 21:52:59;;;;;;;13.15;5.80;;;;;;;5.64;100.00;100385.88;10187067;28;20125;-67
2022/02/13 21:57:55;;;;;;;8.68;4.55;;;;;;;5.70;100.00;100382.00;10191264;28;20083;-67
2022/02/13 22:02:52;;;;;;;12.10;5.13;;;;;;;5.67;100.00;100372.53;10168081;28;20133;-66
2022/02/13 22:07:48;;;;;;;11.40;5.35;;;;;;;5.69;100.00;100386.63;10200009;28;20073;-64
2022/02/13 22:12:45;;;;;;;11.93;5.20;;;;;;;5.73;100.00;100364.31;10191490;28;20155;-65
2022/02/13 22:17:42;;;;;;;14.40;4.82;;;;;;;5.72;100.00;100379.00;10225610;28;20042;-65
2022/02/13 22:22:38;;;;;;;13.07;5.70;;;;;;;5.81;100.00;100366.38;10189314;28;20077;-65
2022/02/13 22:27:35;;;;;;;12.18;5.30;;;;;;;5.85;100.00;100346.50;10174211;28;20495;-65
2022/02/13 22:32:31;;;;;;;11.05;5.10;;;;;;;5.96;100.00;100346.38;10179762;28;20046;-65
2022/02/13 22:37:28;;;;;;;7.68;4.50;;;;;;;5.96;100.00;100341.72;10191898;28;20045;-64
2022/02/13 22:42:24;;;;;;;10.95;4.75;;;;;;;5.98;100.00;100339.53;10168862;28;20069;-65
2022/02/13 22:47:21;;;;;;;14.27;4.47;;;;;;;6.04;100.00;100330.22;10185287;28;20678;-64